Time;durP1;ratioP1;P1;durP2;ratioP2;P2;SDS_P1;SDS_P2;PMS_P1;PMS_P2;Temp;Humidity;BMP_temperature;BMP_pressure;BME280_temperature;BME280_humidity;BME280_pressure;Samples;Min_cycle;Max_cycle;Signal;HPM_P1;HPM_P2
2023/09/24 00:01:44;;;;;;;8.07;4.68;;;;;;;;;;5112118;28;20039;-65
2023/09/24 00:04:10;;;;;;;11.18;5.30;;;;;;;;;;5111980;28;20039;-65
2023/09/24 00:06:36;;;;;;;9.07;5.30;;;;;;;;;;5112051;28;20160;-65
2023/09/24 00:09:02;;;;;;;10.60;5.00;;;;;;;;;;5112010;28;20039;-66
2023/09/24 00:11:28;;;;;;;7.38;4.57;;;;;;;;;;5110336;28;20031;-66
2023/09/24 00:13:54;;;;;;;9.00;4.90;;;;;;;;;;5113708;28;20059;-65
2023/09/24 00:16:20;;;;;;;11.13;5.85;;;;;;;;;;5116182;28;20131;-66
2023/09/24 00:18:45;;;;;;;8.20;4.97;;;;;;;;;;5116158;28;20122;-65
2023/09/24 00:21:12;;;;;;;9.93;5.05;;;;;;;;;;5115876;28;20093;-65
2023/09/24 00:23:38;;;;;;;9.10;5.20;;;;;;;;;;5115987;28;20044;-66
2023/09/24 00:26:04;;;;;;;7.68;5.45;;;;;;;;;;5115964;28;20035;-65
2023/09/24 00:28:30;;;;;;;8.20;5.45;;;;;;;;;;5115984;28;20088;-66
2023/09/24 00:30:55;;;;;;;8.77;5.10;;;;;;;;;;5114508;28;20516;-65
2023/09/24 00:33:22;;;;;;;8.60;4.80;;;;;;;;;;5097153;28;20459;-65
2023/09/24 00:35:48;;;;;;;9.07;5.10;;;;;;;;;;5116163;28;20035;-65
2023/09/24 00:38:13;;;;;;;9.45;5.55;;;;;;;;;;5115283;28;20105;-65
2023/09/24 00:40:39;;;;;;;12.90;5.03;;;;;;;;;;5114313;28;20040;-65
2023/09/24 00:43:23;;;;;;;8.63;4.93;;;;;;;;;;5114399;28;20608;-65
2023/09/24 00:45:50;;;;;;;11.70;5.28;;;;;;;;;;5115738;28;20043;-65
2023/09/24 00:48:15;;;;;;;7.97;5.07;;;;;;;;;;5114210;28;20031;-66
2023/09/24 00:50:41;;;;;;;12.70;5.65;;;;;;;;;;5114303;28;20047;-64
2023/09/24 00:53:07;;;;;;;12.30;4.97;;;;;;;;;;5113941;28;20047;-65
2023/09/24 00:55:33;;;;;;;11.27;5.25;;;;;;;;;;5114338;28;20035;-64
2023/09/24 00:58:02;;;;;;;10.80;5.40;;;;;;;;;;5115486;28;20118;-67
2023/09/24 01:00:34;;;;;;;10.80;5.28;;;;;;;;;;5113950;28;20042;-65
2023/09/24 01:03:00;;;;;;;8.90;4.82;;;;;;;;;;5113982;28;20031;-65
2023/09/24 01:05:27;;;;;;;11.43;5.45;;;;;;;;;;5115395;28;20122;-65
2023/09/24 01:07:53;;;;;;;12.52;6.03;;;;;;;;;;5115294;28;20067;-65
2023/09/24 01:10:23;;;;;;;9.57;5.00;;;;;;;;;;5113618;28;20184;-65
2023/09/24 01:13:04;;;;;;;13.27;5.40;;;;;;;;;;5114865;28;20054;-65
2023/09/24 01:15:31;;;;;;;11.27;5.15;;;;;;;;;;5114656;27;20031;-66
2023/09/24 01:17:57;;;;;;;10.43;5.30;;;;;;;;;;5113233;28;20496;-65
2023/09/24 01:20:24;;;;;;;11.27;5.53;;;;;;;;;;5113575;28;20039;-66
2023/09/24 01:22:51;;;;;;;10.52;5.15;;;;;;;;;;5114945;28;20113;-65
2023/09/24 01:25:20;;;;;;;11.95;5.20;;;;;;;;;;5114905;28;20077;-65
2023/09/24 01:27:46;;;;;;;10.30;5.35;;;;;;;;;;5114548;28;20042;-66
2023/09/24 01:30:13;;;;;;;9.43;4.80;;;;;;;;;;5114542;28;20032;-65
2023/09/24 01:32:40;;;;;;;6.82;4.22;;;;;;;;;;5113424;28;20106;-65
2023/09/24 01:35:06;;;;;;;9.73;5.50;;;;;;;;;;5114732;28;20043;-66
2023/09/24 01:37:34;;;;;;;11.93;5.32;;;;;;;;;;5113053;28;20440;-66
2023/09/24 01:40:10;;;;;;;8.82;5.47;;;;;;;;;;5113116;28;20036;-65
2023/09/24 01:42:36;;;;;;;9.90;5.22;;;;;;;;;;5113268;28;20024;-66
2023/09/24 01:45:02;;;;;;;9.48;5.07;;;;;;;;;;5113016;28;20482;-66
2023/09/24 01:47:29;;;;;;;9.20;5.25;;;;;;;;;;5113045;28;20488;-65
2023/09/24 01:49:56;;;;;;;13.52;5.60;;;;;;;;;;5113033;28;20040;-65
2023/09/24 01:52:22;;;;;;;8.23;5.28;;;;;;;;;;5112997;28;20035;-67
2023/09/24 01:54:48;;;;;;;8.27;5.38;;;;;;;;;;5114073;28;20402;-65
2023/09/24 01:57:13;;;;;;;7.90;5.28;;;;;;;;;;5114217;28;20138;-66
2023/09/24 01:59:39;;;;;;;11.10;5.00;;;;;;;;;;5112919;28;20038;-66
2023/09/24 02:02:06;;;;;;;8.68;5.20;;;;;;;;;;5112849;28;20560;-66
2023/09/24 02:04:32;;;;;;;7.95;4.80;;;;;;;;;;5095639;28;20386;-65
2023/09/24 02:07:00;;;;;;;8.45;4.90;;;;;;;;;;5112574;28;20042;-66
2023/09/24 02:09:25;;;;;;;9.98;4.95;;;;;;;;;;5112777;28;20044;-65
2023/09/24 02:11:54;;;;;;;11.18;4.90;;;;;;;;;;5113841;28;20499;-67
2023/09/24 02:14:19;;;;;;;6.68;5.03;;;;;;;;;;5112606;28;20043;-67
2023/09/24 02:16:45;;;;;;;9.88;5.32;;;;;;;;;;5113761;28;20035;-66
2023/09/24 02:19:11;;;;;;;10.57;5.15;;;;;;;;;;5113578;28;20118;-66
2023/09/24 02:21:40;;;;;;;6.90;5.03;;;;;;;;;;5112575;28;20583;-66
2023/09/24 02:24:08;;;;;;;9.13;5.15;;;;;;;;;;5095382;28;20043;-66
2023/09/24 02:26:34;;;;;;;6.63;4.80;;;;;;;;;;5113763;28;20035;-66
2023/09/24 02:29:00;;;;;;;11.38;5.20;;;;;;;;;;5112366;28;20031;-68
2023/09/24 02:31:26;;;;;;;11.30;5.10;;;;;;;;;;5113685;28;20126;-65
2023/09/24 02:33:52;;;;;;;10.57;5.13;;;;;;;;;;5112319;28;20051;-65
2023/09/24 02:36:18;;;;;;;8.98;4.85;;;;;;;;;;5111851;28;20039;-65
2023/09/24 02:38:43;;;;;;;10.40;5.30;;;;;;;;;;5113282;28;20063;-65
2023/09/24 02:41:11;;;;;;;9.02;5.22;;;;;;;;;;5113102;28;20031;-66
2023/09/24 02:43:37;;;;;;;9.95;4.78;;;;;;;;;;5113045;28;20527;-66
2023/09/24 02:46:05;;;;;;;9.60;5.28;;;;;;;;;;5112072;28;20133;-66
2023/09/24 02:48:32;;;;;;;7.25;4.88;;;;;;;;;;5113260;28;20047;-65
2023/09/24 02:51:05;;;;;;;7.15;4.80;;;;;;;;;;5111922;28;20104;-66
2023/09/24 02:53:30;;;;;;;9.55;5.20;;;;;;;;;;5112887;28;20516;-66
2023/09/24 02:55:56;;;;;;;9.63;5.00;;;;;;;;;;5111821;28;20121;-66
2023/09/24 02:58:22;;;;;;;9.00;5.13;;;;;;;;;;5112766;28;20071;-66
2023/09/24 03:00:48;;;;;;;9.63;5.35;;;;;;;;;;5113069;28;20036;-65
2023/09/24 03:03:15;;;;;;;9.65;5.20;;;;;;;;;;5094766;28;20050;-66
2023/09/24 03:05:43;;;;;;;10.50;5.07;;;;;;;;;;5111722;28;20081;-66
2023/09/24 03:08:09;;;;;;;10.65;5.13;;;;;;;;;;5113021;28;20036;-66
2023/09/24 03:10:35;;;;;;;10.20;5.30;;;;;;;;;;5111385;28;20080;-65
2023/09/24 03:13:04;;;;;;;10.98;5.50;;;;;;;;;;5112634;28;20028;-65
2023/09/24 03:15:31;;;;;;;8.85;5.28;;;;;;;;;;5111583;28;20476;-66
2023/09/24 03:17:59;;;;;;;9.65;5.15;;;;;;;;;;5111112;28;20036;-65
2023/09/24 03:20:25;;;;;;;13.43;5.55;;;;;;;;;;5112498;28;20038;-66
2023/09/24 03:22:52;;;;;;;8.68;4.97;;;;;;;;;;5111311;28;20031;-66
2023/09/24 03:25:19;;;;;;;10.25;5.53;;;;;;;;;;5112312;28;20435;-65
2023/09/24 03:27:46;;;;;;;11.60;5.53;;;;;;;;;;5111265;28;20039;-66
2023/09/24 03:30:14;;;;;;;14.02;5.25;;;;;;;;;;5111353;28;20043;-66
2023/09/24 03:32:43;;;;;;;10.30;5.68;;;;;;;;;;5112508;28;20172;-66
2023/09/24 03:35:10;;;;;;;12.18;5.38;;;;;;;;;;5094095;28;20047;-66
2023/09/24 03:37:43;;;;;;;9.07;4.90;;;;;;;;;;5112094;28;20059;-66
2023/09/24 03:40:10;;;;;;;8.63;5.63;;;;;;;;;;5112456;28;20500;-66
2023/09/24 03:42:37;;;;;;;9.38;4.97;;;;;;;;;;5111030;28;20114;-65
2023/09/24 03:45:05;;;;;;;7.63;4.60;;;;;;;;;;5112050;28;20044;-66
2023/09/24 03:47:31;;;;;;;9.07;5.50;;;;;;;;;;5076277;28;20031;-66
2023/09/24 03:49:56;;;;;;;7.88;4.78;;;;;;;;;;5112061;28;20554;-66
2023/09/24 03:52:22;;;;;;;8.90;4.85;;;;;;;;;;5112095;28;20097;-66
2023/09/24 03:54:47;;;;;;;11.88;5.88;;;;;;;;;;5112116;28;20067;-66
2023/09/24 03:57:13;;;;;;;8.77;5.72;;;;;;;;;;5110624;28;20035;-66
2023/09/24 03:59:39;;;;;;;7.85;5.40;;;;;;;;;;5111938;28;20039;-65
2023/09/24 04:02:07;;;;;;;9.10;4.90;;;;;;;;;;5110685;28;20492;-66
2023/09/24 04:04:36;;;;;;;9.52;5.45;;;;;;;;;;5112125;28;20035;-66
2023/09/24 04:07:03;;;;;;;8.43;5.18;;;;;;;;;;5110730;28;20119;-66
2023/09/24 04:09:32;;;;;;;8.90;5.13;;;;;;;;;;5093525;28;20031;-65
2023/09/24 04:11:59;;;;;;;7.30;5.07;;;;;;;;;;5111868;28;20055;-66
2023/09/24 04:14:25;;;;;;;12.18;7.53;;;;;;;;;;5111812;28;20134;-66
2023/09/24 04:16:51;;;;;;;11.18;6.43;;;;;;;;;;5112008;28;20049;-67
2023/09/24 04:19:17;;;;;;;9.95;5.32;;;;;;;;;;5111529;28;20501;-66
2023/09/24 04:21:45;;;;;;;7.57;5.32;;;;;;;;;;5111979;28;20485;-66
2023/09/24 04:24:10;;;;;;;11.00;5.20;;;;;;;;;;5111847;28;20038;-66
2023/09/24 04:26:36;;;;;;;7.38;5.70;;;;;;;;;;5111729;28;20031;-66
2023/09/24 04:29:02;;;;;;;8.70;5.28;;;;;;;;;;5111777;28;20436;-66
2023/09/24 04:31:28;;;;;;;10.85;5.60;;;;;;;;;;5111816;28;20491;-66
2023/09/24 04:33:53;;;;;;;8.52;5.32;;;;;;;;;;5111438;28;20047;-65
2023/09/24 04:36:19;;;;;;;9.40;5.18;;;;;;;;;;5110305;28;20024;-67
2023/09/24 04:38:46;;;;;;;12.13;5.38;;;;;;;;;;5111177;28;20501;-66
2023/09/24 04:41:13;;;;;;;8.57;5.22;;;;;;;;;;5111455;28;20032;-67
2023/09/24 04:43:39;;;;;;;11.13;5.45;;;;;;;;;;5110238;28;20035;-66
2023/09/24 04:46:04;;;;;;;14.73;5.68;;;;;;;;;;5111433;28;20030;-65
2023/09/24 04:48:34;;;;;;;9.52;5.40;;;;;;;;;;5111365;28;20044;-66
2023/09/24 04:51:00;;;;;;;8.13;5.00;;;;;;;;;;5111598;28;20036;-66
2023/09/24 04:53:25;;;;;;;11.68;6.78;;;;;;;;;;5111191;28;20843;-66
2023/09/24 04:55:51;;;;;;;11.43;6.03;;;;;;;;;;5110390;28;20038;-67
2023/09/24 04:58:17;;;;;;;10.40;5.30;;;;;;;;;;5112283;28;20103;-68
2023/09/24 05:00:42;;;;;;;11.80;5.78;;;;;;;;;;5115465;28;20032;-66
2023/09/24 05:03:08;;;;;;;9.23;4.97;;;;;;;;;;5115535;28;20047;-66
2023/09/24 05:05:33;;;;;;;9.23;5.53;;;;;;;;;;5115370;28;20043;-67
2023/09/24 05:08:02;;;;;;;9.95;5.50;;;;;;;;;;5115351;28;20158;-66
2023/09/24 05:10:28;;;;;;;14.27;6.22;;;;;;;;;;5115266;28;20031;-67
2023/09/24 05:12:54;;;;;;;16.73;6.25;;;;;;;;;;5113179;28;20040;-68
2023/09/24 05:15:19;;;;;;;9.10;5.18;;;;;;;;;;5114848;27;20032;-67
2023/09/24 05:17:45;;;;;;;13.52;5.93;;;;;;;;;;5115065;27;20043;-67
2023/09/24 05:20:11;;;;;;;8.93;5.30;;;;;;;;;;5114735;28;20516;-68
2023/09/24 05:22:39;;;;;;;10.98;5.63;;;;;;;;;;5114884;28;20492;-66
2023/09/24 05:25:05;;;;;;;8.25;5.32;;;;;;;;;;5114928;28;20027;-67
2023/09/24 05:27:32;;;;;;;8.88;5.57;;;;;;;;;;5114709;28;20454;-66
2023/09/24 05:29:58;;;;;;;11.25;6.03;;;;;;;;;;5114950;28;20035;-67
2023/09/24 05:32:23;;;;;;;11.23;6.13;;;;;;;;;;5114736;28;20035;-67
2023/09/24 05:34:52;;;;;;;8.90;5.70;;;;;;;;;;5114506;28;20152;-68
2023/09/24 05:37:18;;;;;;;10.70;5.82;;;;;;;;;;5114463;28;20063;-68
2023/09/24 05:39:43;;;;;;;8.43;5.70;;;;;;;;;;5114757;28;20055;-67
2023/09/24 05:42:09;;;;;;;8.95;5.63;;;;;;;;;;5114427;28;20035;-68
2023/09/24 05:44:34;;;;;;;11.98;5.80;;;;;;;;;;5114523;28;20041;-67
2023/09/24 05:47:00;;;;;;;13.23;5.82;;;;;;;;;;5114415;28;20024;-67
2023/09/24 05:49:26;;;;;;;7.63;5.32;;;;;;;;;;5114153;28;20044;-67
2023/09/24 05:51:52;;;;;;;7.75;5.88;;;;;;;;;;5114362;28;20089;-67
2023/09/24 05:54:17;;;;;;;12.82;6.22;;;;;;;;;;5114551;28;20501;-68
2023/09/24 05:56:43;;;;;;;9.02;5.85;;;;;;;;;;5114365;28;20039;-67
2023/09/24 05:59:09;;;;;;;12.57;6.07;;;;;;;;;;5114263;27;20028;-68
2023/09/24 06:01:35;;;;;;;12.70;5.85;;;;;;;;;;5114364;28;20028;-67
2023/09/24 06:04:00;;;;;;;9.60;5.82;;;;;;;;;;5114142;28;20482;-67
2023/09/24 06:06:26;;;;;;;12.95;6.25;;;;;;;;;;5095946;28;20405;-68
2023/09/24 06:08:53;;;;;;;12.13;6.80;;;;;;;;;;5113841;28;20036;-68
2023/09/24 06:11:19;;;;;;;12.27;6.75;;;;;;;;;;5112758;28;20031;-67
2023/09/24 06:13:44;;;;;;;12.68;6.43;;;;;;;;;;5113901;28;20047;-67
2023/09/24 06:16:10;;;;;;;12.13;6.13;;;;;;;;;;5113710;28;20027;-67
2023/09/24 06:18:35;;;;;;;13.13;6.75;;;;;;;;;;5113686;28;20405;-69
2023/09/24 06:21:04;;;;;;;13.02;6.80;;;;;;;;;;5113537;28;20084;-67
2023/09/24 06:23:30;;;;;;;9.68;6.43;;;;;;;;;;5113617;28;20039;-68
2023/09/24 06:25:56;;;;;;;12.48;6.75;;;;;;;;;;5113675;28;20126;-67
2023/09/24 06:28:22;;;;;;;10.75;6.40;;;;;;;;;;5113414;28;20591;-67
2023/09/24 06:30:48;;;;;;;16.55;7.13;;;;;;;;;;5112515;28;20418;-67
2023/09/24 06:33:13;;;;;;;10.70;6.80;;;;;;;;;;5113369;28;20054;-67
2023/09/24 06:35:39;;;;;;;13.93;6.63;;;;;;;;;;5113316;28;20035;-67
2023/09/24 06:38:05;;;;;;;13.18;6.75;;;;;;;;;;5113066;28;20108;-67
2023/09/24 06:40:30;;;;;;;12.15;6.50;;;;;;;;;;5113514;28;20408;-67
2023/09/24 06:42:56;;;;;;;17.25;7.20;;;;;;;;;;5113539;28;20031;-68
2023/09/24 06:45:22;;;;;;;11.63;6.63;;;;;;;;;;5113515;28;20070;-67
2023/09/24 06:47:47;;;;;;;14.52;6.93;;;;;;;;;;5113206;28;20485;-68
2023/09/24 06:50:13;;;;;;;10.73;6.75;;;;;;;;;;5112940;28;20039;-67
2023/09/24 06:52:39;;;;;;;12.32;6.50;;;;;;;;;;5113206;28;20035;-69
2023/09/24 06:55:11;;;;;;;11.48;7.53;;;;;;;;;;5113176;28;20039;-69
2023/09/24 06:57:36;;;;;;;14.85;6.80;;;;;;;;;;5113241;28;20050;-68
2023/09/24 07:00:04;;;;;;;16.17;7.05;;;;;;;;;;5112911;28;20039;-67
2023/09/24 07:02:31;;;;;;;15.98;7.03;;;;;;;;;;5112982;28;20035;-66
2023/09/24 07:04:57;;;;;;;16.02;6.72;;;;;;;;;;5112911;28;20038;-67
2023/09/24 07:07:23;;;;;;;13.82;6.82;;;;;;;;;;5111501;28;20066;-67
2023/09/24 07:09:48;;;;;;;11.80;7.22;;;;;;;;;;5112872;28;20122;-67
2023/09/24 07:12:16;;;;;;;18.00;7.10;;;;;;;;;;5112049;28;20450;-68
2023/09/24 07:14:41;;;;;;;12.98;7.35;;;;;;;;;;5112677;28;20075;-67
2023/09/24 07:17:07;;;;;;;16.75;7.28;;;;;;;;;;5112517;28;20108;-67
2023/09/24 07:19:32;;;;;;;16.05;6.75;;;;;;;;;;5112747;28;20130;-68
2023/09/24 07:21:58;;;;;;;14.82;7.15;;;;;;;;;;5112400;28;20067;-67
2023/09/24 07:24:24;;;;;;;14.32;7.03;;;;;;;;;;5112341;28;20051;-68
2023/09/24 07:26:50;;;;;;;13.35;7.13;;;;;;;;;;5112548;28;20039;-67
2023/09/24 07:29:16;;;;;;;16.30;7.05;;;;;;;;;;5112181;28;20412;-68
2023/09/24 07:31:41;;;;;;;17.58;7.35;;;;;;;;;;5112526;28;20037;-67
2023/09/24 07:34:09;;;;;;;15.38;7.20;;;;;;;;;;5111143;28;20135;-67
2023/09/24 07:36:34;;;;;;;10.52;6.97;;;;;;;;;;5110980;28;20036;-67
2023/09/24 07:39:00;;;;;;;14.05;6.85;;;;;;;;;;5112086;28;20061;-67
2023/09/24 07:41:26;;;;;;;12.68;7.07;;;;;;;;;;5112186;28;20058;-67
2023/09/24 07:43:53;;;;;;;13.73;7.70;;;;;;;;;;5112115;28;20044;-67
2023/09/24 07:46:19;;;;;;;17.70;7.45;;;;;;;;;;5111945;28;20493;-68
2023/09/24 07:48:47;;;;;;;14.02;7.55;;;;;;;;;;5112103;28;20040;-68
2023/09/24 07:51:16;;;;;;;10.75;7.40;;;;;;;;;;5111710;28;20405;-69
2023/09/24 07:53:42;;;;;;;12.90;6.88;;;;;;;;;;5111717;28;20054;-68
2023/09/24 07:56:11;;;;;;;13.63;7.43;;;;;;;;;;5111795;28;20024;-68
2023/09/24 07:58:38;;;;;;;10.23;6.93;;;;;;;;;;5111805;28;20036;-68
2023/09/24 08:01:04;;;;;;;14.45;7.57;;;;;;;;;;5111772;28;20557;-68
2023/09/24 08:03:31;;;;;;;11.68;7.35;;;;;;;;;;5110392;28;20040;-68
2023/09/24 08:05:57;;;;;;;12.88;7.00;;;;;;;;;;5110768;28;20119;-68
2023/09/24 08:08:25;;;;;;;17.30;7.57;;;;;;;;;;5111988;28;20479;-68
2023/09/24 08:10:51;;;;;;;18.48;7.35;;;;;;;;;;5110739;28;20020;-68
2023/09/24 08:13:20;;;;;;;16.95;6.38;;;;;;;;;;5111863;28;20040;-67
2023/09/24 08:15:46;;;;;;;16.30;7.72;;;;;;;;;;5111907;28;20046;-68
2023/09/24 08:18:12;;;;;;;13.73;7.15;;;;;;;;;;5111965;28;20043;-67
2023/09/24 08:20:39;;;;;;;19.33;7.05;;;;;;;;;;5112254;28;20035;-68
2023/09/24 08:23:04;;;;;;;19.15;8.20;;;;;;;;;;5112007;28;20051;-67
2023/09/24 08:25:31;;;;;;;19.00;7.47;;;;;;;;;;5110352;28;20031;-67
2023/09/24 08:27:57;;;;;;;15.65;7.53;;;;;;;;;;5111622;28;20076;-69
2023/09/24 08:30:23;;;;;;;13.75;6.97;;;;;;;;;;5111412;28;20028;-68
2023/09/24 08:32:48;;;;;;;15.48;6.35;;;;;;;;;;5110331;28;20035;-68
2023/09/24 08:35:14;;;;;;;12.35;6.63;;;;;;;;;;5115737;28;20040;-67
2023/09/24 08:37:39;;;;;;;14.15;6.75;;;;;;;;;;5115580;28;20059;-67
2023/09/24 08:40:06;;;;;;;15.50;7.10;;;;;;;;;;5115709;28;20173;-67
2023/09/24 08:42:32;;;;;;;9.85;6.68;;;;;;;;;;5115845;28;20489;-67
2023/09/24 08:45:06;;;;;;;12.43;6.85;;;;;;;;;;5115775;28;20050;-67
2023/09/24 08:47:33;;;;;;;13.18;6.82;;;;;;;;;;5115726;28;20031;-68
2023/09/24 08:50:00;;;;;;;10.80;6.68;;;;;;;;;;5115685;28;20031;-69
2023/09/24 08:52:26;;;;;;;11.65;6.28;;;;;;;;;;5115528;28;20036;-68
2023/09/24 08:54:52;;;;;;;11.23;7.07;;;;;;;;;;5115498;27;20057;-67
2023/09/24 08:57:17;;;;;;;12.30;6.72;;;;;;;;;;5115414;28;20466;-66
2023/09/24 08:59:43;;;;;;;13.07;6.70;;;;;;;;;;5115324;28;20034;-67
2023/09/24 09:02:08;;;;;;;10.60;6.13;;;;;;;;;;5114647;28;20509;-67
2023/09/24 09:04:46;;;;;;;11.43;6.30;;;;;;;;;;5115008;28;20123;-67
2023/09/24 09:07:12;;;;;;;12.35;7.25;;;;;;;;;;5115233;28;20035;-68
2023/09/24 09:09:37;;;;;;;11.60;6.68;;;;;;;;;;5115054;28;20077;-67
2023/09/24 09:12:03;;;;;;;9.88;6.70;;;;;;;;;;5113397;28;20023;-68
2023/09/24 09:14:34;;;;;;;13.23;7.15;;;;;;;;;;5113502;28;20054;-68
2023/09/24 09:17:00;;;;;;;13.32;6.90;;;;;;;;;;5113244;28;20035;-67
2023/09/24 09:19:26;;;;;;;13.10;6.88;;;;;;;;;;5114863;28;20040;-68
2023/09/24 09:21:52;;;;;;;10.48;6.55;;;;;;;;;;5114785;28;20077;-67
2023/09/24 09:24:26;;;;;;;13.25;6.85;;;;;;;;;;5114536;27;20039;-67
2023/09/24 09:26:55;;;;;;;12.45;6.38;;;;;;;;;;5113524;28;20038;-67
2023/09/24 09:29:22;;;;;;;11.35;6.57;;;;;;;;;;5113127;28;20117;-67
2023/09/24 09:31:51;;;;;;;10.40;6.68;;;;;;;;;;5114620;28;20462;-68
2023/09/24 09:34:17;;;;;;;16.25;7.15;;;;;;;;;;5114677;28;20089;-68
2023/09/24 09:36:43;;;;;;;17.85;7.22;;;;;;;;;;5114292;28;20036;-67
2023/09/24 09:39:09;;;;;;;11.73;6.53;;;;;;;;;;5114273;28;20073;-67
2023/09/24 09:41:35;;;;;;;10.90;6.28;;;;;;;;;;5114639;28;20031;-67
2023/09/24 09:44:04;;;;;;;15.10;7.40;;;;;;;;;;5112885;28;20086;-67
2023/09/24 09:46:33;;;;;;;11.10;5.80;;;;;;;;;;5113246;28;20038;-67
2023/09/24 09:49:04;;;;;;;12.35;6.65;;;;;;;;;;5112804;28;20035;-68
2023/09/24 09:51:44;;;;;;;11.80;6.68;;;;;;;;;;5095824;28;20038;-69
2023/09/24 09:54:11;;;;;;;14.60;6.85;;;;;;;;;;5095569;28;20652;-67
2023/09/24 09:56:37;;;;;;;11.77;5.90;;;;;;;;;;5112659;28;20039;-68
2023/09/24 09:59:06;;;;;;;18.42;7.07;;;;;;;;;;5114114;28;20047;-68
2023/09/24 10:01:32;;;;;;;17.33;10.75;;;;;;;;;;5114162;28;20035;-69
2023/09/24 10:03:59;;;;;;;13.10;6.50;;;;;;;;;;5114056;27;20036;-68
2023/09/24 10:06:26;;;;;;;11.70;6.32;;;;;;;;;;5114029;28;20038;-68
2023/09/24 10:08:52;;;;;;;12.50;5.85;;;;;;;;;;5113996;28;20059;-68
2023/09/24 10:11:30;;;;;;;12.23;5.72;;;;;;;;;;5113703;28;20031;-68
2023/09/24 10:13:57;;;;;;;12.55;5.93;;;;;;;;;;5113436;28;20053;-67
2023/09/24 10:16:25;;;;;;;52.90;30.13;;;;;;;;;;5113660;28;20118;-67
2023/09/24 10:18:54;;;;;;;85.65;48.30;;;;;;;;;;5112493;28;20035;-68
2023/09/24 10:21:28;;;;;;;10.95;6.15;;;;;;;;;;5113681;28;20031;-68
2023/09/24 10:23:53;;;;;;;10.90;6.07;;;;;;;;;;5113428;28;20046;-67
2023/09/24 10:26:38;;;;;;;14.48;6.53;;;;;;;;;;5113676;28;20140;-67
2023/09/24 10:29:03;;;;;;;10.60;6.00;;;;;;;;;;5112035;28;20535;-68
2023/09/24 10:31:29;;;;;;;12.25;5.85;;;;;;;;;;5113537;27;20035;-68
2023/09/24 10:34:05;;;;;;;11.50;5.82;;;;;;;;;;5113371;28;20039;-66
2023/09/24 10:36:34;;;;;;;10.13;5.35;;;;;;;;;;5111805;28;20342;-67
2023/09/24 10:39:01;;;;;;;16.08;6.05;;;;;;;;;;5113202;28;20067;-67
2023/09/24 10:41:27;;;;;;;11.88;6.00;;;;;;;;;;5113144;28;20035;-69
2023/09/24 10:44:11;;;;;;;9.32;6.20;;;;;;;;;;5112985;28;20038;-69
2023/09/24 10:46:37;;;;;;;9.90;5.32;;;;;;;;;;5113224;28;20104;-66
2023/09/24 10:49:03;;;;;;;11.05;6.07;;;;;;;;;;5113090;28;20031;-69
2023/09/24 10:51:28;;;;;;;10.05;5.63;;;;;;;;;;5111810;28;20450;-67
2023/09/24 10:54:12;;;;;;;14.48;5.60;;;;;;;;;;5112879;28;20051;-67
2023/09/24 10:56:38;;;;;;;11.30;6.30;;;;;;;;;;5112384;28;20488;-69
2023/09/24 10:59:04;;;;;;;9.38;6.00;;;;;;;;;;5113213;28;20051;-68
2023/09/24 11:01:30;;;;;;;9.45;6.28;;;;;;;;;;5112831;28;20515;-69
2023/09/24 11:03:56;;;;;;;18.42;5.88;;;;;;;;;;5112641;28;20035;-68
2023/09/24 11:06:34;;;;;;;16.25;6.20;;;;;;;;;;5112791;28;20028;-68
2023/09/24 11:09:16;;;;;;;8.70;6.30;;;;;;;;;;5112790;28;20197;-70
2023/09/24 11:11:41;;;;;;;12.02;5.80;;;;;;;;;;5112628;28;20034;-68
2023/09/24 11:14:22;;;;;;;13.65;6.03;;;;;;;;;;5112475;28;20413;-68
2023/09/24 11:16:51;;;;;;;10.43;6.07;;;;;;;;;;5112622;28;20024;-68
2023/09/24 11:19:37;;;;;;;9.88;6.20;;;;;;;;;;5112503;28;20044;-68
2023/09/24 11:22:15;;;;;;;14.82;7.03;;;;;;;;;;5110939;28;20049;-68
2023/09/24 11:24:41;;;;;;;9.80;5.75;;;;;;;;;;5112342;28;20042;-68
2023/09/24 11:27:07;;;;;;;13.00;6.32;;;;;;;;;;5112392;28;20032;-68
2023/09/24 11:29:32;;;;;;;10.45;5.85;;;;;;;;;;5112343;27;20042;-67
2023/09/24 11:31:58;;;;;;;15.65;6.18;;;;;;;;;;5110966;28;20036;-68
2023/09/24 11:34:25;;;;;;;13.93;6.10;;;;;;;;;;5112007;28;20052;-68
2023/09/24 11:36:57;;;;;;;13.98;5.90;;;;;;;;;;5111901;28;20446;-68
2023/09/24 11:39:22;;;;;;;11.27;5.82;;;;;;;;;;5112835;27;20063;-67
2023/09/24 11:41:49;;;;;;;15.95;6.32;;;;;;;;;;5112233;28;20043;-67
2023/09/24 11:44:14;;;;;;;13.48;5.85;;;;;;;;;;5112321;28;20059;-66
2023/09/24 11:46:40;;;;;;;12.25;5.82;;;;;;;;;;5112229;28;20058;-66
2023/09/24 11:49:06;;;;;;;12.43;5.80;;;;;;;;;;5112182;28;20092;-68
2023/09/24 11:51:32;;;;;;;9.15;5.63;;;;;;;;;;5110630;28;20061;-67
2023/09/24 11:53:58;;;;;;;10.70;5.50;;;;;;;;;;5110507;28;20541;-69
2023/09/24 11:56:24;;;;;;;10.32;5.85;;;;;;;;;;5111875;28;20107;-67
2023/09/24 11:58:49;;;;;;;12.07;6.25;;;;;;;;;;5111363;28;20447;-66
2023/09/24 12:01:15;;;;;;;10.30;5.53;;;;;;;;;;5111951;28;20027;-67
2023/09/24 12:03:42;;;;;;;7.70;4.90;;;;;;;;;;5111903;28;20039;-66
2023/09/24 12:06:08;;;;;;;12.73;5.70;;;;;;;;;;5112187;28;20036;-66
2023/09/24 12:08:34;;;;;;;12.15;7.07;;;;;;;;;;5110775;28;20043;-66
2023/09/24 12:11:00;;;;;;;12.10;5.50;;;;;;;;;;5111731;28;20036;-65
2023/09/24 12:13:26;;;;;;;9.38;5.68;;;;;;;;;;5111576;28;20512;-67
2023/09/24 12:15:51;;;;;;;9.32;5.35;;;;;;;;;;5111593;28;20028;-66
2023/09/24 12:18:17;;;;;;;10.35;5.78;;;;;;;;;;5111822;28;20496;-66
2023/09/24 12:20:43;;;;;;;6.55;4.70;;;;;;;;;;5112221;28;20437;-67
2023/09/24 12:23:09;;;;;;;8.60;4.80;;;;;;;;;;5111844;28;20035;-67
2023/09/24 12:25:35;;;;;;;10.27;5.20;;;;;;;;;;5111769;28;20127;-66
2023/09/24 12:28:02;;;;;;;10.05;5.28;;;;;;;;;;5111875;28;20036;-68
2023/09/24 12:30:28;;;;;;;8.95;5.13;;;;;;;;;;5111474;28;20092;-68
2023/09/24 12:32:54;;;;;;;7.13;5.25;;;;;;;;;;5111709;28;20039;-66
2023/09/24 12:35:19;;;;;;;13.50;5.43;;;;;;;;;;5111704;28;20050;-65
2023/09/24 12:37:45;;;;;;;9.15;5.78;;;;;;;;;;5111366;28;20466;-67
2023/09/24 12:40:11;;;;;;;10.35;5.05;;;;;;;;;;5110472;28;20042;-67
2023/09/24 12:42:39;;;;;;;8.32;4.93;;;;;;;;;;5111648;28;20446;-67
2023/09/24 12:45:06;;;;;;;9.70;5.18;;;;;;;;;;5110357;28;20036;-67
2023/09/24 12:47:33;;;;;;;11.35;5.35;;;;;;;;;;5111468;28;20438;-67
2023/09/24 12:50:00;;;;;;;8.88;5.45;;;;;;;;;;5111516;28;20047;-67
2023/09/24 12:52:30;;;;;;;10.00;5.53;;;;;;;;;;5111595;28;20028;-67
2023/09/24 12:54:55;;;;;;;;;;;;;;;;;;5111931;28;20040;-67
2023/09/24 12:57:21;;;;;;;8.63;4.95;;;;;;;;;;5111625;28;19919;-66
2023/09/24 12:59:46;;;;;;;12.25;5.47;;;;;;;;;;5111456;28;20040;-67
2023/09/24 13:02:12;;;;;;;10.38;5.38;;;;;;;;;;5109783;28;20044;-66
2023/09/24 13:04:37;;;;;;;10.02;5.18;;;;;;;;;;5111009;28;20046;-67
2023/09/24 13:07:03;;;;;;;8.93;4.97;;;;;;;;;;5111269;28;20126;-66
2023/09/24 13:09:29;;;;;;;7.68;4.75;;;;;;;;;;5110988;28;20429;-67
2023/09/24 13:11:56;;;;;;;8.32;5.10;;;;;;;;;;5111153;28;20040;-67
2023/09/24 13:14:22;;;;;;;11.60;4.95;;;;;;;;;;5111123;28;20043;-67
2023/09/24 13:16:48;;;;;;;5.72;4.78;;;;;;;;;;5111017;28;20118;-67
2023/09/24 13:19:13;;;;;;;9.27;4.97;;;;;;;;;;5111639;28;20047;-68
2023/09/24 13:21:43;;;;;;;8.18;4.90;;;;;;;;;;5114774;28;20110;-67
2023/09/24 13:24:09;;;;;;;10.85;4.93;;;;;;;;;;5114828;28;20097;-67
2023/09/24 13:26:39;;;;;;;8.63;5.38;;;;;;;;;;5114930;28;20473;-67
2023/09/24 13:29:06;;;;;;;12.57;5.55;;;;;;;;;;5114412;28;20043;-67
2023/09/24 13:31:32;;;;;;;8.75;5.05;;;;;;;;;;5114563;28;20038;-67
2023/09/24 13:33:59;;;;;;;19.17;5.35;;;;;;;;;;5114263;28;20043;-67
2023/09/24 13:36:25;;;;;;;7.85;4.82;;;;;;;;;;5114640;27;20030;-67
2023/09/24 13:38:51;;;;;;;9.57;5.10;;;;;;;;;;5114216;28;20059;-68
2023/09/24 13:41:17;;;;;;;9.75;5.00;;;;;;;;;;5114587;28;20133;-67
2023/09/24 13:43:42;;;;;;;18.73;5.00;;;;;;;;;;5114538;28;20040;-68
2023/09/24 13:46:08;;;;;;;11.18;5.07;;;;;;;;;;5114212;28;20489;-67
2023/09/24 13:48:34;;;;;;;12.13;4.72;;;;;;;;;;5114772;28;20462;-67
2023/09/24 13:51:00;;;;;;;8.57;4.80;;;;;;;;;;5114125;28;20066;-67
2023/09/24 13:53:25;;;;;;;11.60;4.93;;;;;;;;;;5114215;28;20135;-68
2023/09/24 13:55:51;;;;;;;10.13;4.72;;;;;;;;;;5113763;27;20063;-67
2023/09/24 13:58:17;;;;;;;11.00;5.22;;;;;;;;;;5114358;28;20485;-67
2023/09/24 14:00:45;;;;;;;7.90;4.60;;;;;;;;;;5112757;28;20088;-66
2023/09/24 14:03:11;;;;;;;8.13;4.72;;;;;;;;;;5113549;27;20032;-70
2023/09/24 14:05:36;;;;;;;19.10;5.85;;;;;;;;;;5106030;28;20038;-70
2023/09/24 14:13:30;;;;;;;6.97;4.50;;;;;;;;;;5089914;28;20134;-67
2023/09/24 14:15:56;;;;;;;8.48;4.45;;;;;;;;;;5093375;28;20454;-67
2023/09/24 14:18:22;;;;;;;6.50;4.32;;;;;;;;;;5093370;28;20398;-68
2023/09/24 14:20:48;;;;;;;10.48;5.10;;;;;;;;;;5093407;28;20055;-68
2023/09/24 14:23:13;;;;;;;13.57;4.78;;;;;;;;;;5093451;28;20443;-70
2023/09/24 14:25:39;;;;;;;9.23;4.68;;;;;;;;;;5093345;28;20040;-69
2023/09/24 14:28:05;;;;;;;14.10;5.18;;;;;;;;;;5089981;28;20036;-70
2023/09/24 14:30:33;;;;;;;9.77;4.78;;;;;;;;;;5081360;28;20441;-72
2023/09/24 14:32:59;;;;;;;7.95;4.97;;;;;;;;;;5084423;28;20036;-69
2023/09/24 14:35:24;;;;;;;11.23;5.30;;;;;;;;;;5085888;28;20055;-68
2023/09/24 14:37:51;;;;;;;10.05;4.65;;;;;;;;;;5083516;28;20096;-69
2023/09/24 14:40:17;;;;;;;12.82;4.97;;;;;;;;;;5083740;28;20502;-69